sensor_id;sensor_type;location;lat;lon;timestamp;pressure;altitude;pressure_sealevel;temperature;humidity
12803;BME280;6465;42.700;23.278;2024-02-15T00:00:20;95405.03;;;5.09;63.81
12803;BME280;6465;42.700;23.278;2024-02-15T00:02:48;95400.81;;;5.05;63.85
12803;BME280;6465;42.700;23.278;2024-02-15T00:05:16;95402.19;;;5.19;62.89
12803;BME280;6465;42.700;23.278;2024-02-15T00:07:43;95409.22;;;5.14;63.15
12803;BME280;6465;42.700;23.278;2024-02-15T00:10:14;95399.56;;;5.19;62.97
12803;BME280;6465;42.700;23.278;2024-02-15T00:12:41;95405.91;;;5.09;63.03
12803;BME280;6465;42.700;23.278;2024-02-15T00:15:08;95404.25;;;5.05;62.85
12803;BME280;6465;42.700;23.278;2024-02-15T00:17:36;95405.09;;;5.06;63.16
12803;BME280;6465;42.700;23.278;2024-02-15T00:20:03;95402.56;;;5.04;63.04
12803;BME280;6465;42.700;23.278;2024-02-15T00:22:36;95413.84;;;5.03;63.02
12803;BME280;6465;42.700;23.278;2024-02-15T00:25:04;95405.41;;;4.94;63.43
12803;BME280;6465;42.700;23.278;2024-02-15T00:27:31;95413.22;;;4.92;63.39
12803;BME280;6465;42.700;23.278;2024-02-15T00:30:00;95423.41;;;5.00;64.72
12803;BME280;6465;42.700;23.278;2024-02-15T00:32:27;95420.59;;;5.10;63.57
12803;BME280;6465;42.700;23.278;2024-02-15T00:34:54;95426.72;;;5.06;63.52
12803;BME280;6465;42.700;23.278;2024-02-15T00:37:21;95413.72;;;5.08;63.17
12803;BME280;6465;42.700;23.278;2024-02-15T00:39:49;95414.53;;;5.10;62.96
12803;BME280;6465;42.700;23.278;2024-02-15T00:42:16;95423.34;;;5.04;63.31
12803;BME280;6465;42.700;23.278;2024-02-15T00:44:44;95403.53;;;4.99;63.85
12803;BME280;6465;42.700;23.278;2024-02-15T00:47:11;95414.69;;;5.04;63.62
12803;BME280;6465;42.700;23.278;2024-02-15T00:49:38;95421.44;;;5.11;63.33
12803;BME280;6465;42.700;23.278;2024-02-15T00:52:06;95412.03;;;5.05;63.14
12803;BME280;6465;42.700;23.278;2024-02-15T00:54:33;95421.50;;;5.08;63.10
12803;BME280;6465;42.700;23.278;2024-02-15T00:57:01;95416.97;;;5.17;62.95
12803;BME280;6465;42.700;23.278;2024-02-15T00:59:28;95417.00;;;5.14;62.95
12803;BME280;6465;42.700;23.278;2024-02-15T01:01:55;95413.66;;;5.11;63.29
12803;BME280;6465;42.700;23.278;2024-02-15T01:04:22;95417.72;;;5.21;62.86
12803;BME280;6465;42.700;23.278;2024-02-15T01:06:49;95413.47;;;5.18;62.72
12803;BME280;6465;42.700;23.278;2024-02-15T01:09:16;95416.97;;;5.17;62.58
12803;BME280;6465;42.700;23.278;2024-02-15T01:11:44;95418.66;;;5.18;62.69
12803;BME280;6465;42.700;23.278;2024-02-15T01:14:13;95421.34;;;5.14;62.66
12803;BME280;6465;42.700;23.278;2024-02-15T01:16:41;95420.91;;;4.97;62.96
12803;BME280;6465;42.700;23.278;2024-02-15T01:19:09;95413.28;;;4.91;63.03
12803;BME280;6465;42.700;23.278;2024-02-15T01:21:36;95418.88;;;5.09;62.69
12803;BME280;6465;42.700;23.278;2024-02-15T01:24:04;95418.16;;;5.03;62.88
12803;BME280;6465;42.700;23.278;2024-02-15T01:26:32;95422.41;;;5.05;63.08
12803;BME280;6465;42.700;23.278;2024-02-15T01:29:00;95409.44;;;5.05;62.74
12803;BME280;6465;42.700;23.278;2024-02-15T01:31:30;95411.09;;;5.09;62.75
12803;BME280;6465;42.700;23.278;2024-02-15T01:33:56;95413.88;;;5.00;63.18
12803;BME280;6465;42.700;23.278;2024-02-15T01:36:23;95417.09;;;5.11;62.88
12803;BME280;6465;42.700;23.278;2024-02-15T01:38:50;95410.97;;;5.14;62.32
12803;BME280;6465;42.700;23.278;2024-02-15T01:41:17;95418.03;;;5.09;62.93
12803;BME280;6465;42.700;23.278;2024-02-15T01:43:44;95402.63;;;5.01;62.86
12803;BME280;6465;42.700;23.278;2024-02-15T01:46:14;95410.56;;;4.95;63.38
12803;BME280;6465;42.700;23.278;2024-02-15T01:48:43;95411.31;;;4.99;63.35
12803;BME280;6465;42.700;23.278;2024-02-15T01:51:12;95420.78;;;5.01;63.23
12803;BME280;6465;42.700;23.278;2024-02-15T01:53:42;95415.53;;;5.04;62.91
12803;BME280;6465;42.700;23.278;2024-02-15T01:56:11;95417.38;;;4.99;63.40
12803;BME280;6465;42.700;23.278;2024-02-15T01:58:39;95422.72;;;4.93;63.46
12803;BME280;6465;42.700;23.278;2024-02-15T02:01:07;95425.31;;;4.92;63.57
12803;BME280;6465;42.700;23.278;2024-02-15T02:03:35;95405.41;;;4.94;63.24
12803;BME280;6465;42.700;23.278;2024-02-15T02:06:04;95425.94;;;5.04;63.11
12803;BME280;6465;42.700;23.278;2024-02-15T02:08:31;95417.16;;;5.08;62.84
12803;BME280;6465;42.700;23.278;2024-02-15T02:10:58;95409.53;;;5.02;62.89
12803;BME280;6465;42.700;23.278;2024-02-15T02:13:27;95422.66;;;4.96;63.12
12803;BME280;6465;42.700;23.278;2024-02-15T02:15:54;95430.34;;;4.99;63.65
12803;BME280;6465;42.700;23.278;2024-02-15T02:18:22;95415.91;;;4.89;63.25
12803;BME280;6465;42.700;23.278;2024-02-15T02:20:49;95432.31;;;4.90;63.07
12803;BME280;6465;42.700;23.278;2024-02-15T02:23:21;95424.84;;;4.76;63.50
12803;BME280;6465;42.700;23.278;2024-02-15T02:25:54;95433.38;;;4.81;63.90
12803;BME280;6465;42.700;23.278;2024-02-15T02:28:22;95429.91;;;4.82;63.78
12803;BME280;6465;42.700;23.278;2024-02-15T02:30:49;95417.03;;;4.77;63.98
12803;BME280;6465;42.700;23.278;2024-02-15T02:33:16;95426.59;;;4.74;64.01
12803;BME280;6465;42.700;23.278;2024-02-15T02:35:44;95430.03;;;4.76;64.22
12803;BME280;6465;42.700;23.278;2024-02-15T02:38:12;95435.25;;;4.74;64.00
12803;BME280;6465;42.700;23.278;2024-02-15T02:40:40;95432.66;;;4.74;63.41
12803;BME280;6465;42.700;23.278;2024-02-15T02:43:08;95435.13;;;4.79;63.59
12803;BME280;6465;42.700;23.278;2024-02-15T02:45:35;95442.25;;;4.71;63.83
12803;BME280;6465;42.700;23.278;2024-02-15T02:48:03;95430.13;;;4.71;63.85
12803;BME280;6465;42.700;23.278;2024-02-15T02:50:30;95440.59;;;4.67;64.15
12803;BME280;6465;42.700;23.278;2024-02-15T02:52:57;95433.84;;;4.60;64.28
12803;BME280;6465;42.700;23.278;2024-02-15T02:55:24;95437.00;;;4.74;63.90
12803;BME280;6465;42.700;23.278;2024-02-15T02:57:52;95438.69;;;4.75;63.68
12803;BME280;6465;42.700;23.278;2024-02-15T03:00:21;95440.69;;;4.64;64.03
12803;BME280;6465;42.700;23.278;2024-02-15T03:02:48;95444.34;;;4.54;64.39
12803;BME280;6465;42.700;23.278;2024-02-15T03:05:16;95439.84;;;4.62;64.45
12803;BME280;6465;42.700;23.278;2024-02-15T03:07:46;95438.88;;;4.67;64.20
12803;BME280;6465;42.700;23.278;2024-02-15T03:10:13;95445.09;;;4.59;64.29
12803;BME280;6465;42.700;23.278;2024-02-15T03:12:40;95434.59;;;4.65;64.35
12803;BME280;6465;42.700;23.278;2024-02-15T03:15:09;95439.69;;;4.69;64.32
12803;BME280;6465;42.700;23.278;2024-02-15T03:17:39;95444.03;;;4.69;64.19
12803;BME280;6465;42.700;23.278;2024-02-15T03:20:07;95442.78;;;4.47;64.99
12803;BME280;6465;42.700;23.278;2024-02-15T03:22:37;95447.78;;;4.56;64.82
12803;BME280;6465;42.700;23.278;2024-02-15T03:25:05;95451.47;;;4.44;65.16
12803;BME280;6465;42.700;23.278;2024-02-15T03:27:33;95452.97;;;4.56;64.80
12803;BME280;6465;42.700;23.278;2024-02-15T03:30:01;95456.47;;;4.53;64.96
12803;BME280;6465;42.700;23.278;2024-02-15T03:32:29;95460.16;;;4.43;64.88
12803;BME280;6465;42.700;23.278;2024-02-15T03:34:58;95460.00;;;4.49;64.99
12803;BME280;6465;42.700;23.278;2024-02-15T03:37:26;95467.78;;;4.49;64.59
12803;BME280;6465;42.700;23.278;2024-02-15T03:39:54;95456.53;;;4.50;64.72
12803;BME280;6465;42.700;23.278;2024-02-15T03:42:21;95453.88;;;4.53;64.63
12803;BME280;6465;42.700;23.278;2024-02-15T03:44:48;95452.97;;;4.56;64.72
12803;BME280;6465;42.700;23.278;2024-02-15T03:47:15;95454.72;;;4.54;64.55
12803;BME280;6465;42.700;23.278;2024-02-15T03:49:43;95461.63;;;4.55;64.74
12803;BME280;6465;42.700;23.278;2024-02-15T03:52:11;95465.13;;;4.52;64.76
12803;BME280;6465;42.700;23.278;2024-02-15T03:54:38;95455.72;;;4.47;64.81
12803;BME280;6465;42.700;23.278;2024-02-15T03:57:08;95459.44;;;4.35;65.05
12803;BME280;6465;42.700;23.278;2024-02-15T03:59:37;95462.13;;;4.30;65.78
12803;BME280;6465;42.700;23.278;2024-02-15T04:02:06;95460.28;;;4.35;65.17
12803;BME280;6465;42.700;23.278;2024-02-15T04:04:38;95463.72;;;4.37;65.35
12803;BME280;6465;42.700;23.278;2024-02-15T04:07:07;95463.63;;;4.42;64.82
12803;BME280;6465;42.700;23.278;2024-02-15T04:09:38;95466.25;;;4.39;64.78
12803;BME280;6465;42.700;23.278;2024-02-15T04:12:05;95448.25;;;4.31;64.78
12803;BME280;6465;42.700;23.278;2024-02-15T04:14:32;95463.00;;;4.29;65.25
12803;BME280;6465;42.700;23.278;2024-02-15T04:16:59;95472.44;;;4.33;65.29
12803;BME280;6465;42.700;23.278;2024-02-15T04:19:27;95465.53;;;4.32;64.89
12803;BME280;6465;42.700;23.278;2024-02-15T04:21:54;95466.38;;;4.33;64.87
12803;BME280;6465;42.700;23.278;2024-02-15T04:24:22;95461.47;;;4.19;65.36
12803;BME280;6465;42.700;23.278;2024-02-15T04:26:50;95469.22;;;4.21;65.52
12803;BME280;6465;42.700;23.278;2024-02-15T04:29:18;95476.09;;;4.23;65.71
12803;BME280;6465;42.700;23.278;2024-02-15T04:31:46;95464.78;;;4.26;65.25
12803;BME280;6465;42.700;23.278;2024-02-15T04:34:15;95469.97;;;4.27;65.69
12803;BME280;6465;42.700;23.278;2024-02-15T04:36:47;95471.66;;;4.28;65.39
12803;BME280;6465;42.700;23.278;2024-02-15T04:39:16;95477.75;;;4.26;65.53
12803;BME280;6465;42.700;23.278;2024-02-15T04:41:51;95468.28;;;4.25;65.39
12803;BME280;6465;42.700;23.278;2024-02-15T04:44:18;95478.75;;;4.20;65.91
12803;BME280;6465;42.700;23.278;2024-02-15T04:46:46;95471.84;;;4.19;66.09
12803;BME280;6465;42.700;23.278;2024-02-15T04:49:14;95478.75;;;4.19;65.92
12803;BME280;6465;42.700;23.278;2024-02-15T04:51:41;95480.63;;;4.12;65.83
12803;BME280;6465;42.700;23.278;2024-02-15T04:54:09;95486.59;;;4.17;65.77
12803;BME280;6465;42.700;23.278;2024-02-15T04:56:38;95480.69;;;4.09;66.45
12803;BME280;6465;42.700;23.278;2024-02-15T04:59:07;95486.63;;;4.14;66.04
12803;BME280;6465;42.700;23.278;2024-02-15T05:01:35;95486.63;;;4.14;65.90
12803;BME280;6465;42.700;23.278;2024-02-15T05:04:02;95497.34;;;3.96;66.37
12803;BME280;6465;42.700;23.278;2024-02-15T05:06:29;95499.06;;;3.97;66.88
12803;BME280;6465;42.700;23.278;2024-02-15T05:08:57;95502.34;;;4.05;66.74
12803;BME280;6465;42.700;23.278;2024-02-15T05:11:26;95498.84;;;4.08;66.43
12803;BME280;6465;42.700;23.278;2024-02-15T05:13:54;95516.28;;;3.98;66.88
12803;BME280;6465;42.700;23.278;2024-02-15T05:16:22;95506.91;;;3.92;67.18
12803;BME280;6465;42.700;23.278;2024-02-15T05:18:49;95515.41;;;4.01;66.85
12803;BME280;6465;42.700;23.278;2024-02-15T05:21:16;95514.50;;;4.03;66.85
12803;BME280;6465;42.700;23.278;2024-02-15T05:23:43;95513.69;;;3.98;67.09
12803;BME280;6465;42.700;23.278;2024-02-15T05:26:11;95518.00;;;3.99;66.77
12803;BME280;6465;42.700;23.278;2024-02-15T05:28:40;95514.50;;;4.03;66.78
12803;BME280;6465;42.700;23.278;2024-02-15T05:31:11;95519.69;;;4.03;66.85
12803;BME280;6465;42.700;23.278;2024-02-15T05:33:41;95517.81;;;4.10;66.52
12803;BME280;6465;42.700;23.278;2024-02-15T05:36:10;95522.97;;;4.11;66.72
12803;BME280;6465;42.700;23.278;2024-02-15T05:38:37;95519.53;;;4.11;66.57
12803;BME280;6465;42.700;23.278;2024-02-15T05:41:04;95526.38;;;4.13;66.75
12803;BME280;6465;42.700;23.278;2024-02-15T05:43:32;95531.69;;;4.07;66.62
12803;BME280;6465;42.700;23.278;2024-02-15T05:46:02;95527.38;;;4.06;66.80
12803;BME280;6465;42.700;23.278;2024-02-15T05:48:29;95531.69;;;4.07;66.70
12803;BME280;6465;42.700;23.278;2024-02-15T05:50:57;95534.38;;;4.03;66.74
12803;BME280;6465;42.700;23.278;2024-02-15T05:53:26;95530.91;;;4.02;66.52
12803;BME280;6465;42.700;23.278;2024-02-15T05:55:53;95530.16;;;3.97;66.96
12803;BME280;6465;42.700;23.278;2024-02-15T05:58:20;95534.28;;;4.07;66.48
12803;BME280;6465;42.700;23.278;2024-02-15T06:00:47;95538.81;;;3.96;66.97
12803;BME280;6465;42.700;23.278;2024-02-15T06:03:15;95543.81;;;4.05;66.56
12803;BME280;6465;42.700;23.278;2024-02-15T06:05:42;95542.94;;;4.06;66.70
12803;BME280;6465;42.700;23.278;2024-02-15T06:08:11;95531.69;;;4.07;66.72
12803;BME280;6465;42.700;23.278;2024-02-15T06:10:39;95536.88;;;4.07;66.44
12803;BME280;6465;42.700;23.278;2024-02-15T06:13:06;95548.97;;;4.05;66.76
12803;BME280;6465;42.700;23.278;2024-02-15T06:15:34;95557.47;;;4.15;66.54
12803;BME280;6465;42.700;23.278;2024-02-15T06:18:02;95551.63;;;4.04;67.05
12803;BME280;6465;42.700;23.278;2024-02-15T06:20:34;95561.09;;;4.05;67.33
12803;BME280;6465;42.700;23.278;2024-02-15T06:23:01;95552.25;;;4.16;66.74
12803;BME280;6465;42.700;23.278;2024-02-15T06:25:32;95554.03;;;4.13;66.75
12803;BME280;6465;42.700;23.278;2024-02-15T06:27:59;95554.91;;;4.12;66.71
12803;BME280;6465;42.700;23.278;2024-02-15T06:30:28;95558.13;;;4.24;66.58
12803;BME280;6465;42.700;23.278;2024-02-15T06:33:12;95562.44;;;4.25;66.49
12803;BME280;6465;42.700;23.278;2024-02-15T06:35:57;95567.69;;;4.24;66.38
12803;BME280;6465;42.700;23.278;2024-02-15T06:38:41;95569.53;;;4.17;66.68
12803;BME280;6465;42.700;23.278;2024-02-15T06:41:27;95572.16;;;4.14;66.64
12803;BME280;6465;42.700;23.278;2024-02-15T06:43:54;95547.28;;;4.04;66.73
12803;BME280;6465;42.700;23.278;2024-02-15T06:46:22;95574.53;;;4.26;66.20
12803;BME280;6465;42.700;23.278;2024-02-15T06:48:49;95566.09;;;4.15;66.53
12803;BME280;6465;42.700;23.278;2024-02-15T06:51:18;95587.47;;;4.26;66.13
12803;BME280;6465;42.700;23.278;2024-02-15T06:53:45;95579.66;;;4.29;66.17
12803;BME280;6465;42.700;23.278;2024-02-15T06:56:12;95582.19;;;4.32;66.35
12803;BME280;6465;42.700;23.278;2024-02-15T06:58:41;95584.63;;;4.42;66.17
12803;BME280;6465;42.700;23.278;2024-02-15T07:01:08;95589.69;;;4.48;65.96
12803;BME280;6465;42.700;23.278;2024-02-15T07:03:35;95582.72;;;4.51;65.93
12803;BME280;6465;42.700;23.278;2024-02-15T07:06:02;95588.84;;;4.46;65.71
12803;BME280;6465;42.700;23.278;2024-02-15T07:08:29;95580.06;;;4.53;65.12
12803;BME280;6465;42.700;23.278;2024-02-15T07:10:56;95586.97;;;4.55;65.27
12803;BME280;6465;42.700;23.278;2024-02-15T07:13:24;95588.00;;;4.45;65.40
12803;BME280;6465;42.700;23.278;2024-02-15T07:15:53;95579.47;;;4.38;65.82
12803;BME280;6465;42.700;23.278;2024-02-15T07:18:20;95577.75;;;4.39;65.74
12803;BME280;6465;42.700;23.278;2024-02-15T07:20:48;95577.78;;;4.37;65.92
12803;BME280;6465;42.700;23.278;2024-02-15T07:23:15;95569.19;;;4.34;66.00
12803;BME280;6465;42.700;23.278;2024-02-15T07:25:42;95566.69;;;4.29;66.66
12803;BME280;6465;42.700;23.278;2024-02-15T07:28:09;95570.91;;;4.36;65.79
12803;BME280;6465;42.700;23.278;2024-02-15T07:30:36;95584.75;;;4.35;65.65
12803;BME280;6465;42.700;23.278;2024-02-15T07:33:05;95567.31;;;4.44;65.63
12803;BME280;6465;42.700;23.278;2024-02-15T07:35:32;95557.97;;;4.33;65.79
12803;BME280;6465;42.700;23.278;2024-02-15T07:38:00;95554.47;;;4.37;65.47
12803;BME280;6465;42.700;23.278;2024-02-15T07:40:28;95562.31;;;4.31;65.70
12803;BME280;6465;42.700;23.278;2024-02-15T07:42:56;95556.25;;;4.32;66.26
12803;BME280;6465;42.700;23.278;2024-02-15T07:45:23;95560.53;;;4.36;65.57
12803;BME280;6465;42.700;23.278;2024-02-15T07:47:50;95539.59;;;4.46;65.56
12803;BME280;6465;42.700;23.278;2024-02-15T07:50:19;95552.59;;;4.44;65.85
12803;BME280;6465;42.700;23.278;2024-02-15T07:52:48;95545.66;;;4.45;65.54
12803;BME280;6465;42.700;23.278;2024-02-15T07:55:16;95561.03;;;4.54;65.67
12803;BME280;6465;42.700;23.278;2024-02-15T07:57:43;95553.97;;;4.62;65.40
12803;BME280;6465;42.700;23.278;2024-02-15T08:00:12;95553.25;;;4.54;65.28
12803;BME280;6465;42.700;23.278;2024-02-15T08:02:42;95555.06;;;4.50;65.89
12803;BME280;6465;42.700;23.278;2024-02-15T08:05:10;95558.31;;;4.61;65.58
12803;BME280;6465;42.700;23.278;2024-02-15T08:07:42;95552.22;;;4.64;65.87
12803;BME280;6465;42.700;23.278;2024-02-15T08:10:09;95541.72;;;4.70;65.43
12803;BME280;6465;42.700;23.278;2024-02-15T08:12:39;95545.22;;;4.67;65.96
12803;BME280;6465;42.700;23.278;2024-02-15T08:15:07;95554.59;;;4.73;65.43
12803;BME280;6465;42.700;23.278;2024-02-15T08:17:38;95549.63;;;4.64;65.40
12803;BME280;6465;42.700;23.278;2024-02-15T08:20:07;95550.25;;;4.75;65.57
12803;BME280;6465;42.700;23.278;2024-02-15T08:22:34;95553.84;;;4.68;65.73
12803;BME280;6465;42.700;23.278;2024-02-15T08:25:06;95554.56;;;4.76;65.81
12803;BME280;6465;42.700;23.278;2024-02-15T08:27:37;95545.63;;;4.89;65.03
12803;BME280;6465;42.700;23.278;2024-02-15T08:30:07;95533.38;;;4.96;65.14
12803;BME280;6465;42.700;23.278;2024-02-15T08:32:36;95541.03;;;5.02;64.57
12803;BME280;6465;42.700;23.278;2024-02-15T08:35:05;95550.69;;;4.95;64.23
12803;BME280;6465;42.700;23.278;2024-02-15T08:37:34;95543.53;;;5.06;63.89
12803;BME280;6465;42.700;23.278;2024-02-15T08:40:02;95541.75;;;5.08;64.22
12803;BME280;6465;42.700;23.278;2024-02-15T08:42:31;95540.03;;;5.07;64.19
12803;BME280;6465;42.700;23.278;2024-02-15T08:44:58;95543.56;;;5.05;63.75
12803;BME280;6465;42.700;23.278;2024-02-15T08:47:25;95547.84;;;5.06;64.05
12803;BME280;6465;42.700;23.278;2024-02-15T08:49:52;95548.78;;;5.05;63.31
12803;BME280;6465;42.700;23.278;2024-02-15T08:52:19;95535.50;;;5.17;63.43
12803;BME280;6465;42.700;23.278;2024-02-15T08:54:46;95525.97;;;5.17;64.16
12803;BME280;6465;42.700;23.278;2024-02-15T08:57:13;95551.94;;;5.17;64.42
12803;BME280;6465;42.700;23.278;2024-02-15T08:59:42;95540.69;;;5.18;63.72
12803;BME280;6465;42.700;23.278;2024-02-15T09:02:09;95540.34;;;5.32;62.68
12803;BME280;6465;42.700;23.278;2024-02-15T09:04:36;95540.22;;;5.38;62.93
12803;BME280;6465;42.700;23.278;2024-02-15T09:07:03;95531.78;;;5.29;63.96
12803;BME280;6465;42.700;23.278;2024-02-15T09:09:30;95535.91;;;5.37;63.22
12803;BME280;6465;42.700;23.278;2024-02-15T09:12:01;95537.66;;;5.37;62.59
12803;BME280;6465;42.700;23.278;2024-02-15T09:14:31;95526.16;;;5.47;62.76
12803;BME280;6465;42.700;23.278;2024-02-15T09:17:00;95528.97;;;5.38;63.13
12803;BME280;6465;42.700;23.278;2024-02-15T09:19:27;95528.53;;;5.56;62.89
12803;BME280;6465;42.700;23.278;2024-02-15T09:21:54;95519.94;;;5.52;62.61
12803;BME280;6465;42.700;23.278;2024-02-15T09:24:22;95522.47;;;5.57;63.17
12803;BME280;6465;42.700;23.278;2024-02-15T09:26:50;95532.72;;;5.62;62.13
12803;BME280;6465;42.700;23.278;2024-02-15T09:29:18;95515.47;;;5.59;61.83
12803;BME280;6465;42.700;23.278;2024-02-15T09:31:46;95524.03;;;5.64;62.09
12803;BME280;6465;42.700;23.278;2024-02-15T09:34:15;95524.75;;;5.69;61.26
12803;BME280;6465;42.700;23.278;2024-02-15T09:36:42;95524.75;;;5.69;61.72
12803;BME280;6465;42.700;23.278;2024-02-15T09:39:09;95505.69;;;5.70;61.03
12803;BME280;6465;42.700;23.278;2024-02-15T09:41:39;95500.06;;;5.88;60.76
12803;BME280;6465;42.700;23.278;2024-02-15T09:44:08;95506.78;;;5.95;61.17
12803;BME280;6465;42.700;23.278;2024-02-15T09:46:43;95522.34;;;5.99;60.16
12803;BME280;6465;42.700;23.278;2024-02-15T09:49:11;95504.94;;;6.01;59.97
12803;BME280;6465;42.700;23.278;2024-02-15T09:51:41;95503.44;;;5.92;61.10
12803;BME280;6465;42.700;23.278;2024-02-15T09:54:09;95501.47;;;6.00;60.30
12803;BME280;6465;42.700;23.278;2024-02-15T09:56:40;95499.53;;;6.08;60.70
12803;BME280;6465;42.700;23.278;2024-02-15T09:59:08;95493.28;;;6.15;61.04
12803;BME280;6465;42.700;23.278;2024-02-15T10:01:36;95483.84;;;6.13;60.06
12803;BME280;6465;42.700;23.278;2024-02-15T10:04:06;95496.66;;;6.19;59.70
12803;BME280;6465;42.700;23.278;2024-02-15T10:06:33;95495.34;;;6.35;59.13
12803;BME280;6465;42.700;23.278;2024-02-15T10:09:26;95491.16;;;6.29;59.36
12803;BME280;6465;42.700;23.278;2024-02-15T10:11:54;95492.41;;;6.47;59.07
12803;BME280;6465;42.700;23.278;2024-02-15T10:14:23;95487.19;;;6.47;58.82
12803;BME280;6465;42.700;23.278;2024-02-15T10:16:50;95472.44;;;6.48;59.03
12803;BME280;6465;42.700;23.278;2024-02-15T10:19:18;95477.53;;;6.52;58.68
12803;BME280;6465;42.700;23.278;2024-02-15T10:21:46;95476.53;;;6.56;58.42
12803;BME280;6465;42.700;23.278;2024-02-15T10:24:13;95470.44;;;6.57;58.50
12803;BME280;6465;42.700;23.278;2024-02-15T10:26:41;95467.06;;;6.54;58.96
12803;BME280;6465;42.700;23.278;2024-02-15T10:29:09;95454.69;;;6.62;58.13
12803;BME280;6465;42.700;23.278;2024-02-15T10:31:37;95453.34;;;6.78;57.84
12803;BME280;6465;42.700;23.278;2024-02-15T10:34:06;95458.22;;;6.89;57.95
12803;BME280;6465;42.700;23.278;2024-02-15T10:36:34;95453.91;;;6.88;57.49
12803;BME280;6465;42.700;23.278;2024-02-15T10:39:11;95446.84;;;6.93;57.61
12803;BME280;6465;42.700;23.278;2024-02-15T10:41:44;95452.22;;;6.87;57.55
12803;BME280;6465;42.700;23.278;2024-02-15T10:44:15;95436.41;;;6.65;57.53
12803;BME280;6465;42.700;23.278;2024-02-15T10:46:44;95447.03;;;6.87;57.36
12803;BME280;6465;42.700;23.278;2024-02-15T10:49:12;95438.69;;;6.74;57.58
12803;BME280;6465;42.700;23.278;2024-02-15T10:51:43;95443.69;;;6.82;57.62
12803;BME280;6465;42.700;23.278;2024-02-15T10:54:12;95444.56;;;6.81;57.29
12803;BME280;6465;42.700;23.278;2024-02-15T10:56:46;95435.75;;;6.86;57.07
12803;BME280;6465;42.700;23.278;2024-02-15T10:59:17;95425.16;;;6.92;57.51
12803;BME280;6465;42.700;23.278;2024-02-15T11:01:46;95427.88;;;7.15;56.45
12803;BME280;6465;42.700;23.278;2024-02-15T11:04:15;95431.19;;;7.21;56.28
12803;BME280;6465;42.700;23.278;2024-02-15T11:06:43;95420.97;;;7.14;56.58
12803;BME280;6465;42.700;23.278;2024-02-15T11:09:11;95429.31;;;7.26;56.62
12803;BME280;6465;42.700;23.278;2024-02-15T11:11:39;95430.84;;;7.31;56.39
12803;BME280;6465;42.700;23.278;2024-02-15T11:14:35;95424.63;;;7.35;56.29
12803;BME280;6465;42.700;23.278;2024-02-15T11:17:02;95427.19;;;7.37;56.60
12803;BME280;6465;42.700;23.278;2024-02-15T11:19:42;95417.56;;;7.40;56.37
12803;BME280;6465;42.700;23.278;2024-02-15T11:22:12;95415.84;;;7.39;56.78
12803;BME280;6465;42.700;23.278;2024-02-15T11:24:46;95408.72;;;7.44;57.00
12803;BME280;6465;42.700;23.278;2024-02-15T11:27:24;95417.22;;;7.49;57.12
12803;BME280;6465;42.700;23.278;2024-02-15T11:29:55;95421.34;;;7.56;57.75
12803;BME280;6465;42.700;23.278;2024-02-15T11:32:43;95402.78;;;7.66;56.58
12803;BME280;6465;42.700;23.278;2024-02-15T11:35:13;95413.81;;;7.74;56.19
12803;BME280;6465;42.700;23.278;2024-02-15T11:37:56;95409.59;;;7.70;56.54
12803;BME280;6465;42.700;23.278;2024-02-15T11:41:04;95413.69;;;7.77;56.77
12803;BME280;6465;42.700;23.278;2024-02-15T11:43:51;95389.63;;;7.69;56.48
12803;BME280;6465;42.700;23.278;2024-02-15T11:46:25;95404.28;;;7.73;56.55
12803;BME280;6465;42.700;23.278;2024-02-15T11:48:56;95399.13;;;7.71;56.56
12803;BME280;6465;42.700;23.278;2024-02-15T11:51:29;95395.66;;;7.71;56.79
12803;BME280;6465;42.700;23.278;2024-02-15T11:54:01;95400.78;;;7.74;57.13
12803;BME280;6465;42.700;23.278;2024-02-15T11:56:31;95390.16;;;7.80;57.19
12803;BME280;6465;42.700;23.278;2024-02-15T11:59:03;95390.81;;;7.85;57.53
12803;BME280;6465;42.700;23.278;2024-02-15T12:01:33;95384.72;;;7.86;56.81
12803;BME280;6465;42.700;23.278;2024-02-15T12:04:18;95393.84;;;7.97;56.76
12803;BME280;6465;42.700;23.278;2024-02-15T12:07:03;95382.56;;;7.97;56.86
12803;BME280;6465;42.700;23.278;2024-02-15T12:09:47;95380.63;;;8.02;57.70
12803;BME280;6465;42.700;23.278;2024-02-15T12:12:31;95377.72;;;8.11;56.56
12803;BME280;6465;42.700;23.278;2024-02-15T12:15:24;95371.94;;;8.26;56.51
12803;BME280;6465;42.700;23.278;2024-02-15T12:18:17;95378.44;;;8.40;55.38
12803;BME280;6465;42.700;23.278;2024-02-15T12:21:02;95385.00;;;8.26;55.52
12803;BME280;6465;42.700;23.278;2024-02-15T12:23:30;95387.69;;;8.23;56.00
12803;BME280;6465;42.700;23.278;2024-02-15T12:25:59;95385.38;;;8.41;55.74
12803;BME280;6465;42.700;23.278;2024-02-15T12:28:27;95369.88;;;8.36;55.99
12803;BME280;6465;42.700;23.278;2024-02-15T12:30:55;95373.00;;;8.46;56.06
12803;BME280;6465;42.700;23.278;2024-02-15T12:33:24;95373.66;;;8.51;55.85
12803;BME280;6465;42.700;23.278;2024-02-15T12:36:03;95366.03;;;8.46;55.55
12803;BME280;6465;42.700;23.278;2024-02-15T12:38:30;95362.31;;;8.52;55.47
12803;BME280;6465;42.700;23.278;2024-02-15T12:40:59;95369.72;;;8.62;55.91
12803;BME280;6465;42.700;23.278;2024-02-15T12:43:27;95364.13;;;8.73;55.26
12803;BME280;6465;42.700;23.278;2024-02-15T12:45:54;95360.13;;;8.86;54.76
12803;BME280;6465;42.700;23.278;2024-02-15T12:48:24;95353.19;;;8.85;55.08
12803;BME280;6465;42.700;23.278;2024-02-15T12:50:52;95352.03;;;8.92;55.78
12803;BME280;6465;42.700;23.278;2024-02-15T12:53:22;95352.59;;;9.00;55.45
12803;BME280;6465;42.700;23.278;2024-02-15T12:55:53;95350.44;;;9.10;54.79
12803;BME280;6465;42.700;23.278;2024-02-15T12:58:24;95353.53;;;9.20;54.50
12803;BME280;6465;42.700;23.278;2024-02-15T13:00:54;95345.06;;;9.14;54.14
12803;BME280;6465;42.700;23.278;2024-02-15T13:03:25;95362.94;;;9.24;54.14
12803;BME280;6465;42.700;23.278;2024-02-15T13:05:52;95347.34;;;9.22;53.72
12803;BME280;6465;42.700;23.278;2024-02-15T13:08:19;95356.50;;;9.32;53.68
12803;BME280;6465;42.700;23.278;2024-02-15T13:10:46;95349.41;;;9.36;53.43
12803;BME280;6465;42.700;23.278;2024-02-15T13:13:13;95355.13;;;9.44;53.45
12803;BME280;6465;42.700;23.278;2024-02-15T13:15:41;95347.88;;;9.50;53.31
12803;BME280;6465;42.700;23.278;2024-02-15T13:18:09;95347.50;;;9.60;52.83
12803;BME280;6465;42.700;23.278;2024-02-15T13:20:38;95348.09;;;9.66;53.37